Terminal Aerodrome Forecast
Issued by NWS

Home | Current Version | Previous Version | Text Only | Print | Product List | Glossary On
Versions: 1 2 3 4 5 6 7 8 9 10 11 12 13 14 15 16 17 18 19 20
779
FTUS43 KDLH 131745
TAFHYR
TAF
KHYR 131745Z 1318/1418 20007KT P6SM VCSH BKN100
      TEMPO 1318/1320 P6SM -SHRA OVC070
     FM140000 VRB03KT P6SM VCSH OVC100
     FM140300 VRB03KT 6SM -SHRA BR OVC050
     FM141400 11005KT P6SM VCSH BKN040 OVC080=

USA.gov is the U.S. government's official web portal to all federal, state and local government web resources and services.